Time;durP1;ratioP1;P1;durP2;ratioP2;P2;SDS_P1;SDS_P2;PMS_P1;PMS_P2;Temp;Humidity;BMP_temperature;BMP_pressure;BME280_temperature;BME280_humidity;BME280_pressure;Samples;Min_cycle;Max_cycle;Signal;HPM_P1;HPM_P2
2022/03/11 00:00:42;;;;;;;44.00;24.55;;;;;;;-3.93;80.49;98650.66;10335611;28;20479;-60
2022/03/11 00:05:42;;;;;;;41.65;23.83;;;;;;;-5.34;80.78;98405.22;10331556;28;20064;-60
2022/03/11 00:10:42;;;;;;;44.15;24.10;;;;;;;-3.99;80.91;98640.09;10334946;28;20064;-60
2022/03/11 00:15:41;;;;;;;46.33;25.42;;;;;;;-4.52;81.19;98543.44;10334281;28;20052;-60
2022/03/11 00:20:40;;;;;;;34.28;20.00;;;;;;;-4.06;81.81;98622.69;10334334;28;20511;-60
2022/03/11 00:25:39;;;;;;;33.60;18.77;;;;;;;-4.37;82.34;98568.97;10333837;28;20513;-60
2022/03/11 00:30:38;;;;;;;30.77;17.45;;;;;;;-4.09;82.63;98622.47;10333733;28;20033;-60
2022/03/11 00:35:37;;;;;;;28.48;15.02;;;;;;;-4.18;82.64;98588.13;10330614;28;20032;-60
2022/03/11 00:40:36;;;;;;;29.45;15.20;;;;;;;-3.84;82.66;98625.94;10334009;28;20067;-60
2022/03/11 00:45:35;;;;;;;21.75;13.05;;;;;;;-4.15;81.81;98578.97;10333073;28;20053;-60
2022/03/11 00:50:34;;;;;;;24.27;13.98;;;;;;;-3.86;82.58;98619.88;10333058;28;20483;-60
2022/03/11 00:55:33;;;;;;;18.65;11.70;;;;;;;-3.92;82.83;98623.66;10333377;28;20053;-60
2022/03/11 01:00:33;;;;;;;22.55;13.38;;;;;;;-3.84;82.53;98628.47;10332823;28;20502;-60
2022/03/11 01:05:32;;;;;;;21.13;12.80;;;;;;;-3.79;82.16;98616.09;10332338;28;20060;-60
2022/03/11 01:10:31;;;;;;;22.20;14.13;;;;;;;-3.79;82.31;98627.16;10329800;28;20037;-60
2022/03/11 01:15:30;;;;;;;21.00;12.27;;;;;;;-3.83;82.30;98620.09;10332595;28;20084;-60
2022/03/11 01:20:29;;;;;;;24.20;13.30;;;;;;;-3.87;81.68;98619.78;10332701;28;20100;-60
2022/03/11 01:25:28;;;;;;;28.95;15.10;;;;;;;-3.97;81.95;98623.34;10332343;28;20087;-60
2022/03/11 01:30:27;;;;;;;29.13;16.20;;;;;;;-3.97;82.47;98613.22;10331478;28;20021;-60
2022/03/11 01:35:26;;;;;;;26.80;15.77;;;;;;;-3.98;82.22;98617.38;10331429;28;20029;-60
2022/03/11 01:40:25;;;;;;;33.50;17.65;;;;;;;-4.22;82.38;98573.47;10328219;28;20076;-60
2022/03/11 01:45:24;;;;;;;;;;;;;;;-4.04;81.49;98613.56;10331905;28;20081;-60
2022/03/11 01:50:23;;;;;;;39.47;24.48;;;;;;;-4.38;81.30;98583.31;10331609;28;19912;-60
2022/03/11 01:55:22;;;;;;;38.45;20.30;;;;;;;-4.31;80.56;98605.75;10330958;28;20061;-60
2022/03/11 02:00:21;;;;;;;31.65;15.90;;;;;;;-4.57;81.05;98592.91;10331460;28;20026;-60
2022/03/11 02:05:20;;;;;;;29.45;15.48;;;;;;;-4.73;80.45;98590.91;10331253;28;20025;-60
2022/03/11 02:10:19;;;;;;;27.95;14.63;;;;;;;-4.75;80.60;98618.66;10327846;28;20455;-60
2022/03/11 02:15:18;;;;;;;;;;;;;;;-4.76;80.94;98611.84;10330716;28;20502;-60
2022/03/11 02:20:17;;;;;;;32.45;16.42;;;;;;;-4.95;81.08;98613.81;10331108;28;20354;-60
2022/03/11 02:25:16;;;;;;;;;;;;;;;-4.91;81.13;98623.38;10330879;28;20057;-60
2022/03/11 02:30:18;;;;;;;28.77;15.60;;;;;;;-4.93;80.17;98622.41;10330063;28;20018;-60
2022/03/11 02:35:18;;;;;;;30.08;15.00;;;;;;;-4.99;80.21;98637.13;10330395;28;20053;-60
2022/03/11 02:40:17;;;;;;;24.83;14.30;;;;;;;-4.90;79.98;98638.69;10325526;28;20061;-60
2022/03/11 02:45:16;;;;;;;29.83;16.48;;;;;;;-4.91;80.62;98641.09;10329810;28;20072;-60
2022/03/11 02:50:15;;;;;;;28.58;15.38;;;;;;;-4.88;80.31;98641.34;10330251;28;20029;-60
2022/03/11 02:55:13;;;;;;;33.72;18.85;;;;;;;-4.90;80.89;98645.41;10329488;28;20411;-60
2022/03/11 03:00:13;;;;;;;59.03;31.40;;;;;;;-4.89;80.06;98652.22;10329533;28;20037;-60
2022/03/11 03:05:13;;;;;;;43.00;23.77;;;;;;;-4.86;80.81;98653.34;10331322;28;20057;-60
2022/03/11 03:10:12;;;;;;;33.42;18.50;;;;;;;-4.82;80.82;98654.44;10336825;28;20057;-60
2022/03/11 03:15:11;;;;;;;24.05;13.30;;;;;;;-5.69;79.73;98535.88;10337443;28;20033;-60
2022/03/11 03:20:11;;;;;;;18.25;10.73;;;;;;;-5.40;78.06;98602.03;10336958;28;20068;-60
2022/03/11 03:25:10;;;;;;;21.98;13.13;;;;;;;-5.77;77.55;98538.63;10333063;28;20060;-60
2022/03/11 03:30:09;;;;;;;18.70;11.73;;;;;;;-5.17;76.39;98670.41;10335529;28;20064;-60
2022/03/11 03:35:10;;;;;;;18.95;11.25;;;;;;;-5.23;74.99;98666.56;10335897;28;20430;-60
2022/03/11 03:40:10;;;;;;;20.45;12.30;;;;;;;-5.14;74.74;98652.94;10335828;28;20065;-60
2022/03/11 03:45:09;;;;;;;18.42;11.05;;;;;;;-4.99;73.71;98663.31;10335978;28;20099;-60
2022/03/11 03:50:09;;;;;;;16.48;9.90;;;;;;;-5.00;74.07;98671.69;10335301;28;20435;-60
2022/03/11 03:55:08;;;;;;;14.70;8.70;;;;;;;-4.92;72.83;98674.78;10330274;28;20061;-60
2022/03/11 04:00:08;;;;;;;14.15;8.98;;;;;;;-4.89;73.14;98664.88;10336012;28;20053;-60
2022/03/11 04:05:08;;;;;;;18.02;10.23;;;;;;;-4.93;72.85;98673.03;10335127;28;20053;-60
2022/03/11 04:10:07;;;;;;;;;;;;;;;-5.15;72.97;98673.94;10335863;28;20057;-60
2022/03/11 04:15:07;;;;;;;19.35;10.30;;;;;;;-5.74;71.92;98574.25;10334720;28;19995;-60
2022/03/11 04:20:06;;;;;;;17.20;10.20;;;;;;;-5.12;72.57;98669.13;10334123;28;20521;-61
2022/03/11 04:25:06;;;;;;;22.27;12.23;;;;;;;-5.12;72.42;98676.72;10334464;28;20060;-60
2022/03/11 04:30:05;;;;;;;29.05;15.68;;;;;;;-5.31;71.83;98683.69;10330376;28;20459;-60
2022/03/11 04:35:05;;;;;;;23.38;11.80;;;;;;;-5.59;71.67;98660.47;10333721;28;20064;-60
2022/03/11 04:40:07;;;;;;;18.55;10.48;;;;;;;-5.63;72.07;98674.53;10333920;28;20131;-60
2022/03/11 04:45:06;;;;;;;19.13;9.77;;;;;;;-5.86;71.23;98618.81;10333606;28;20589;-60
2022/03/11 04:50:06;;;;;;;21.27;12.27;;;;;;;-5.74;72.11;98645.03;10332956;28;20061;-60
2022/03/11 04:55:05;;;;;;;20.80;11.70;;;;;;;-5.51;72.10;98705.81;10332732;28;20503;-60
2022/03/11 05:00:05;;;;;;;19.77;10.60;;;;;;;-5.30;71.96;98711.63;10328990;28;20056;-60
2022/03/11 05:05:05;;;;;;;19.33;10.90;;;;;;;-5.27;71.34;98716.91;10332118;28;20064;-60
2022/03/11 05:10:06;;;;;;;22.35;12.52;;;;;;;-5.11;70.76;98716.44;10332822;28;20087;-60
2022/03/11 05:15:07;;;;;;;20.75;10.45;;;;;;;-5.01;70.53;98714.59;10331511;28;20068;-60
2022/03/11 05:20:07;;;;;;;19.23;11.70;;;;;;;-5.10;70.49;98705.56;10332377;28;20072;-60
2022/03/11 05:25:06;;;;;;;18.20;10.07;;;;;;;-4.90;70.48;98723.88;10314103;28;20068;-60
2022/03/11 05:30:06;;;;;;;20.90;11.85;;;;;;;-4.73;70.62;98731.06;10338042;28;20472;-60
2022/03/11 05:35:06;;;;;;;22.73;13.77;;;;;;;-4.53;69.64;98726.59;10304280;28;20111;-60
2022/03/11 05:40:06;;;;;;;35.50;18.67;;;;;;;-4.32;70.37;98738.31;10328620;28;20060;-60
2022/03/11 05:45:07;;;;;;;29.50;16.50;;;;;;;-4.13;70.71;98735.44;10332089;28;20107;-60
2022/03/11 05:50:06;;;;;;;32.63;16.60;;;;;;;-4.00;71.21;98738.09;10331473;28;20072;-60
2022/03/11 05:55:08;;;;;;;87.22;40.47;;;;;;;-4.37;65.43;98694.03;10331491;28;20056;-60
2022/03/11 06:00:08;;;;;;;31.25;15.45;;;;;;;-4.38;64.95;98732.78;10328362;28;20076;-60
2022/03/11 06:05:10;;;;;;;24.17;12.88;;;;;;;-4.35;65.77;98714.38;10328416;28;20064;-60
2022/03/11 06:10:09;;;;;;;26.67;14.65;;;;;;;-4.52;65.73;98665.03;10326324;28;20072;-60
2022/03/11 06:15:14;;;;;;;28.98;17.58;;;;;;;-3.87;65.58;98757.59;10331014;28;20125;-60
2022/03/11 06:20:14;;;;;;;19.48;11.60;;;;;;;-3.74;66.48;98766.94;10327666;28;20064;-60
2022/03/11 06:25:12;;;;;;;;;;;;;;;-3.80;66.49;98761.44;10331020;28;20064;-60
2022/03/11 06:30:12;;;;;;;17.83;10.55;;;;;;;-4.80;66.66;98630.09;10330561;28;20016;-60
2022/03/11 06:35:13;;;;;;;22.33;11.48;;;;;;;-4.03;66.01;98772.47;10330192;28;20061;-60
2022/03/11 06:40:13;;;;;;;88.30;39.45;;;;;;;-4.50;66.56;98707.44;10333031;28;20061;-60
2022/03/11 06:45:14;;;;;;;73.43;28.90;;;;;;;-3.93;66.46;98763.88;10335982;28;20084;-60
2022/03/11 06:50:16;;;;;;;27.10;14.20;;;;;;;-3.79;66.47;98780.94;10337653;28;20065;-60
2022/03/11 06:55:15;;;;;;;23.25;13.02;;;;;;;-3.61;67.40;98791.53;10337701;28;20095;-60
2022/03/11 07:00:15;;;;;;;19.77;9.63;;;;;;;-3.77;66.30;98792.97;10337225;28;20069;-60
2022/03/11 07:05:14;;;;;;;21.70;12.95;;;;;;;-3.63;65.28;98805.75;10334372;28;20091;-60
2022/03/11 07:10:15;;;;;;;24.17;13.80;;;;;;;-3.83;64.11;98810.28;10334121;28;20502;-60
2022/03/11 07:15:14;;;;;;;16.77;9.93;;;;;;;-3.67;64.40;98808.84;10334336;28;20072;-60
2022/03/11 07:20:13;;;;;;;19.25;12.00;;;;;;;-3.23;63.39;98811.09;10336118;28;20029;-60
2022/03/11 07:25:12;;;;;;;17.63;9.98;;;;;;;-3.02;61.27;98804.09;10336635;28;20040;-60
2022/03/11 07:30:12;;;;;;;16.50;8.82;;;;;;;-3.24;59.58;98795.00;10336662;28;20029;-60
2022/03/11 07:35:12;;;;;;;30.55;17.80;;;;;;;-3.47;59.48;98746.84;10336266;28;20077;-60
2022/03/11 07:40:12;;;;;;;18.00;9.10;;;;;;;-3.68;59.66;98736.06;10335874;28;20065;-60
2022/03/11 07:45:13;;;;;;;105.90;61.75;;;;;;;-3.26;61.21;98800.75;10335749;28;20073;-60
2022/03/11 07:50:12;;;;;;;33.88;23.83;;;;;;;-2.98;61.52;98786.63;10335555;28;20065;-60
2022/03/11 07:55:11;;;;;;;38.25;24.27;;;;;;;-3.16;60.93;98745.63;10335056;28;20068;-60
2022/03/11 08:00:11;;;;;;;59.30;34.08;;;;;;;-3.28;59.34;98775.25;10335440;28;20025;-60
2022/03/11 08:05:17;;;;;;;14.50;8.75;;;;;;;-3.11;59.57;98763.72;10335446;28;20069;-60
2022/03/11 08:10:19;;;;;;;27.48;17.50;;;;;;;-2.93;62.17;98767.50;10333875;28;20069;-60
2022/03/11 08:15:18;;;;;;;48.20;33.35;;;;;;;-2.98;61.77;98720.59;10334219;28;20061;-60
2022/03/11 08:20:18;;;;;;;66.47;37.80;;;;;;;-2.62;60.98;98772.09;10333969;28;20072;-60
2022/03/11 08:25:18;;;;;;;14.35;8.75;;;;;;;-2.80;58.24;98765.81;10332780;28;20068;-60
2022/03/11 08:30:18;;;;;;;20.17;11.82;;;;;;;-2.87;58.37;98758.53;10334123;28;20077;-60
2022/03/11 08:35:18;;;;;;;20.52;12.65;;;;;;;-2.91;58.18;98768.50;10333684;28;20072;-60
2022/03/11 08:40:27;;;;;;;15.50;9.05;;;;;;;-3.22;57.31;98770.59;10333513;28;20632;-60
2022/03/11 08:45:26;;;;;;;100.35;50.00;;;;;;;-3.17;56.76;98754.03;10333157;28;20500;-60
2022/03/11 08:50:25;;;;;;;79.25;36.40;;;;;;;-2.91;57.93;98768.50;10332972;28;20504;-60
2022/03/11 08:55:24;;;;;;;17.42;10.98;;;;;;;-3.11;55.98;98758.63;10332490;28;20381;-60
2022/03/11 09:00:25;;;;;;;193.20;89.22;;;;;;;-2.81;56.73;98751.34;10332470;28;20484;-60
2022/03/11 09:05:25;;;;;;;75.20;38.65;;;;;;;-2.38;56.28;98756.72;10331575;28;20077;-60
2022/03/11 09:10:24;;;;;;;24.45;13.93;;;;;;;-2.16;55.74;98736.13;10330812;28;20072;-60
2022/03/11 09:15:23;;;;;;;22.83;13.05;;;;;;;-1.89;52.35;98749.72;10331825;28;20025;-61
2022/03/11 09:20:23;;;;;;;15.95;9.38;;;;;;;-1.88;51.03;98743.88;10332249;28;20030;-60
2022/03/11 09:25:22;;;;;;;15.45;8.35;;;;;;;-2.50;48.41;98683.09;10332107;28;20057;-60
2022/03/11 09:30:21;;;;;;;19.00;10.60;;;;;;;-2.39;50.51;98720.25;10332132;28;20084;-60
2022/03/11 09:35:20;;;;;;;14.68;9.00;;;;;;;-2.24;51.45;98699.16;10331335;28;20036;-60
2022/03/11 09:40:19;;;;;;;27.30;17.77;;;;;;;-1.86;51.34;98719.41;10331714;28;20064;-61
2022/03/11 09:45:21;;;;;;;27.92;20.67;;;;;;;-1.80;47.85;98719.78;10330139;28;20052;-61
2022/03/11 09:50:20;;;;;;;12.85;7.93;;;;;;;-1.69;46.64;98715.38;10330942;28;20084;-60
2022/03/11 09:55:19;;;;;;;;;;;;;;;-1.85;46.72;98723.69;10330956;28;20076;-60
2022/03/11 10:00:18;;;;;;;57.47;31.13;;;;;;;-1.68;48.02;98722.19;10330829;28;19999;-60
2022/03/11 10:05:17;;;;;;;29.33;16.35;;;;;;;-1.46;47.36;98720.22;10331283;28;20075;-60
2022/03/11 10:10:19;;;;;;;15.93;8.95;;;;;;;-1.75;46.93;98646.28;10331371;28;20072;-60
2022/03/11 10:15:27;;;;;;;66.38;39.10;;;;;;;-1.10;48.45;98717.25;10333747;28;20063;-60
2022/03/11 10:20:27;;;;;;;13.82;7.85;;;;;;;-1.34;45.84;98702.25;10339275;28;20471;-60
2022/03/11 10:25:30;;;;;;;20.88;14.35;;;;;;;-1.07;45.94;98712.34;10339092;28;20380;-61
2022/03/11 10:30:35;;;;;;;16.00;10.15;;;;;;;-0.72;47.16;98721.19;10338171;28;20146;-60
2022/03/11 10:35:37;;;;;;;21.02;12.90;;;;;;;-0.35;47.48;98711.47;10339019;28;20068;-61
2022/03/11 10:40:42;;;;;;;15.55;7.70;;;;;;;-0.24;45.20;98706.97;10337908;28;20072;-60
2022/03/11 10:45:50;;;;;;;16.98;10.93;;;;;;;0.40;45.27;98699.44;10333597;28;20551;-60
2022/03/11 10:50:49;;;;;;;13.55;8.50;;;;;;;0.63;44.66;98654.72;10338146;28;20065;-58
2022/03/11 10:55:49;;;;;;;10.82;6.72;;;;;;;-0.17;43.49;98556.03;10338053;28;20061;-60
2022/03/11 11:00:52;;;;;;;13.02;7.55;;;;;;;-0.29;43.16;98611.50;10338298;28;20068;-61
2022/03/11 11:05:52;;;;;;;11.15;6.95;;;;;;;0.26;44.56;98670.63;10337801;28;20068;-61
2022/03/11 11:10:51;;;;;;;8.95;5.78;;;;;;;-0.49;43.62;98656.25;10337645;28;20072;-60
2022/03/11 11:15:54;;;;;;;59.20;45.03;;;;;;;-0.20;45.38;98657.91;10336097;28;20080;-60
2022/03/11 11:20:53;;;;;;;15.52;9.27;;;;;;;0.05;45.13;98596.31;10336277;28;20068;-60
2022/03/11 11:25:52;;;;;;;18.10;10.20;;;;;;;0.46;43.16;98661.50;10335569;28;20071;-61
2022/03/11 11:30:56;;;;;;;19.00;10.00;;;;;;;0.34;42.03;98648.94;10336879;28;20076;-60
2022/03/11 11:36:01;;;;;;;11.45;6.47;;;;;;;0.44;41.79;98638.41;10336498;28;20071;-60
2022/03/11 11:41:03;;;;;;;13.88;8.77;;;;;;;0.46;41.45;98625.75;10336548;28;20487;-60
2022/03/11 11:46:10;;;;;;;12.82;7.07;;;;;;;0.08;40.94;98646.66;10310777;28;20077;-60
2022/03/11 11:51:11;;;;;;;23.55;11.57;;;;;;;-0.42;42.50;98631.19;10295277;28;20065;-60
2022/03/11 11:56:30;;;;;;;13.10;9.15;;;;;;;-0.00;42.92;98643.69;10295098;28;20066;-60
2022/03/11 12:01:53;;;;;;;22.88;12.65;;;;;;;0.31;43.74;98635.13;10294807;28;20065;-60
2022/03/11 12:06:56;;;;;;;14.73;10.75;;;;;;;0.33;42.03;98623.31;10318701;28;20395;-60
2022/03/11 12:11:55;;;;;;;21.15;14.38;;;;;;;0.10;42.76;98614.44;10334897;28;20068;-60
2022/03/11 12:17:06;;;;;;;13.05;8.65;;;;;;;0.09;41.73;98582.94;10335554;28;20037;-60
2022/03/11 12:22:29;;;;;;;19.35;12.43;;;;;;;0.46;41.95;98611.28;10334762;28;20176;-61
2022/03/11 12:28:01;;;;;;;26.33;14.10;;;;;;;0.05;40.98;98612.53;10334335;28;20068;-60
2022/03/11 12:33:03;;;;;;;13.45;8.35;;;;;;;0.34;40.19;98612.34;10334606;28;20080;-60
2022/03/11 12:38:03;;;;;;;23.48;12.93;;;;;;;0.11;39.35;98614.53;10333884;28;20069;-60
2022/03/11 12:43:04;;;;;;;18.90;11.50;;;;;;;0.17;40.71;98614.88;10333832;28;20067;-60
2022/03/11 12:48:04;;;;;;;13.85;8.77;;;;;;;0.18;40.18;98603.84;10333538;28;20088;-61
2022/03/11 12:53:09;;;;;;;12.73;8.82;;;;;;;-0.57;41.88;98507.09;10332994;28;20065;-61
2022/03/11 12:58:10;;;;;;;31.02;16.42;;;;;;;-0.24;40.73;98622.81;10333283;28;20072;-61
2022/03/11 13:03:11;;;;;;;27.23;15.55;;;;;;;-0.44;41.05;98597.09;10333430;28;20069;-61
2022/03/11 13:08:15;;;;;;;23.98;12.82;;;;;;;-0.48;42.22;98620.66;10331832;28;20076;-61
2022/03/11 13:13:16;;;;;;;38.97;17.88;;;;;;;-1.11;42.24;98538.09;10332510;28;20065;-61
2022/03/11 13:18:22;;;;;;;21.20;12.00;;;;;;;-0.39;43.38;98630.50;10332178;28;20068;-61
2022/03/11 13:23:28;;;;;;;31.70;17.38;;;;;;;-0.84;43.38;98561.72;10332442;28;20494;-60
2022/03/11 13:28:30;;;;;;;20.95;12.23;;;;;;;-0.62;43.92;98631.75;10332575;28;20080;-61
2022/03/11 13:33:34;;;;;;;16.33;8.35;;;;;;;-0.78;43.83;98635.09;10332219;28;20069;-60
2022/03/11 13:38:59;;;;;;;181.10;90.63;;;;;;;-0.68;44.62;98621.19;10331748;28;20067;-61
2022/03/11 13:44:04;;;;;;;59.78;36.42;;;;;;;-0.47;45.14;98621.53;10328750;28;20075;-61
2022/03/11 13:49:06;;;;;;;49.75;33.90;;;;;;;-0.49;44.42;98621.44;10330545;28;20060;-61
2022/03/11 13:54:05;;;;;;;23.77;14.82;;;;;;;-1.04;44.50;98488.38;10332021;28;20075;-61
2022/03/11 13:59:05;;;;;;;13.50;9.20;;;;;;;0.16;44.02;98625.00;10331919;28;20029;-61
2022/03/11 14:04:22;;;;;;;24.63;13.27;;;;;;;-0.01;42.90;98613.88;10331366;28;20076;-61
2022/03/11 14:09:27;;;;;;;11.30;7.28;;;;;;;-0.59;43.82;98621.72;10330756;28;20069;-61
2022/03/11 14:14:27;;;;;;;16.02;8.25;;;;;;;-0.91;44.40;98525.59;10330920;28;20073;-61
2022/03/11 14:19:27;;;;;;;15.30;10.15;;;;;;;-0.42;43.37;98590.38;10331055;28;20075;-61
2022/03/11 14:24:26;;;;;;;21.58;13.30;;;;;;;-0.39;44.51;98608.44;10331109;28;20064;-61
2022/03/11 14:29:25;;;;;;;17.83;9.80;;;;;;;-0.29;44.05;98601.28;10330771;28;20129;-61
2022/03/11 14:34:24;;;;;;;34.28;14.18;;;;;;;-0.26;44.04;98588.69;10330715;28;20032;-61
2022/03/11 14:39:23;;;;;;;18.35;11.90;;;;;;;-0.15;44.34;98590.16;10330897;28;20603;-61
2022/03/11 14:44:22;;;;;;;19.50;11.10;;;;;;;-0.20;45.04;98599.25;10330097;28;20042;-61
2022/03/11 14:49:21;;;;;;;20.33;12.85;;;;;;;-0.64;47.23;98602.75;10330533;28;20500;-60
2022/03/11 14:54:20;;;;;;;20.60;11.98;;;;;;;-0.56;47.15;98601.50;10330246;28;20502;-61
2022/03/11 14:59:25;;;;;;;19.55;10.38;;;;;;;-0.57;47.05;98578.47;10330243;28;20080;-61
2022/03/11 15:04:25;;;;;;;21.77;13.80;;;;;;;-0.38;47.41;98592.31;10337485;28;20068;-61
2022/03/11 15:09:24;;;;;;;12.57;7.32;;;;;;;-0.33;45.90;98589.16;10338331;28;20076;-61
2022/03/11 15:14:23;;;;;;;;;;;;;;;-0.41;46.46;98592.16;10337923;28;20104;-61
2022/03/11 15:19:22;;;;;;;20.02;12.27;;;;;;;-0.78;46.23;98547.56;10336942;28;20295;-61
2022/03/11 15:24:21;;;;;;;23.30;15.45;;;;;;;-0.47;46.04;98590.94;10337391;28;20160;-61
2022/03/11 15:29:20;;;;;;;20.15;11.10;;;;;;;-0.61;47.01;98596.13;10336795;28;20072;-61
2022/03/11 15:34:19;;;;;;;16.95;10.48;;;;;;;-0.82;47.02;98598.34;10336543;28;20503;-61
2022/03/11 15:39:18;;;;;;;17.02;10.65;;;;;;;-0.87;47.08;98599.75;10336278;28;20471;-61
2022/03/11 15:44:18;;;;;;;18.10;11.05;;;;;;;-1.15;47.29;98596.41;10336247;28;20115;-60
2022/03/11 15:49:17;;;;;;;24.38;13.60;;;;;;;-1.12;48.38;98607.63;10336983;28;20817;-61
2022/03/11 15:54:17;;;;;;;15.57;8.57;;;;;;;-1.41;48.25;98597.44;10333991;28;20068;-61
2022/03/11 15:59:16;;;;;;;19.15;11.68;;;;;;;-1.59;49.42;98557.34;10334652;28;20069;-61
2022/03/11 16:04:16;;;;;;;25.95;17.40;;;;;;;-1.31;50.16;98605.69;10334923;28;20068;-61
2022/03/11 16:09:15;;;;;;;25.27;16.52;;;;;;;-1.36;50.83;98607.09;10329701;28;20145;-61
2022/03/11 16:14:14;;;;;;;22.00;13.32;;;;;;;-1.79;50.59;98557.84;10306128;28;20645;-61
2022/03/11 16:19:13;;;;;;;25.98;13.88;;;;;;;-1.48;50.26;98586.88;10299708;28;20069;-61
2022/03/11 16:24:12;;;;;;;17.67;9.65;;;;;;;-1.64;50.64;98579.97;10293911;28;20113;-61
2022/03/11 16:29:11;;;;;;;13.55;7.47;;;;;;;-1.89;51.53;98549.66;10294272;28;20065;-61
2022/03/11 16:34:10;;;;;;;115.28;40.15;;;;;;;-1.53;50.95;98598.44;10293491;28;20040;-61
2022/03/11 16:39:09;;;;;;;45.78;20.98;;;;;;;-1.53;50.85;98608.63;10297648;28;20921;-61
2022/03/11 16:44:12;;;;;;;32.90;19.58;;;;;;;-1.71;50.74;98582.94;10292994;28;20061;-61
2022/03/11 16:49:11;;;;;;;31.55;20.25;;;;;;;-1.65;52.45;98607.91;10329816;28;20085;-61
2022/03/11 16:54:11;;;;;;;28.48;18.48;;;;;;;-1.78;53.30;98611.34;10332752;28;20126;-61
2022/03/11 16:59:11;;;;;;;24.35;14.82;;;;;;;-2.26;53.23;98551.63;10291651;28;20136;-61
2022/03/11 17:04:10;;;;;;;28.42;16.05;;;;;;;-1.83;53.81;98609.31;10331767;28;20072;-61
2022/03/11 17:09:13;;;;;;;24.17;15.45;;;;;;;-2.16;52.89;98556.47;10329984;28;20038;-61
2022/03/11 17:14:13;;;;;;;28.25;17.83;;;;;;;-1.78;52.98;98610.47;10333062;28;20069;-61
2022/03/11 17:19:12;;;;;;;23.30;15.20;;;;;;;-1.71;53.55;98620.25;10332373;28;20068;-61
2022/03/11 17:24:11;;;;;;;20.25;12.98;;;;;;;-1.99;53.77;98564.25;10330870;28;20068;-61
2022/03/11 17:29:10;;;;;;;27.20;16.40;;;;;;;-1.70;53.52;98624.56;10330841;28;20119;-61
2022/03/11 17:34:10;;;;;;;23.13;14.52;;;;;;;-1.78;53.38;98629.16;10327102;28;20076;-61
2022/03/11 17:39:08;;;;;;;35.17;20.30;;;;;;;-1.78;53.48;98641.88;10331703;28;20073;-61
2022/03/11 17:44:07;;;;;;;39.13;23.08;;;;;;;-1.83;53.80;98635.63;10331522;28;20039;-61
2022/03/11 17:49:06;;;;;;;37.22;22.48;;;;;;;-1.79;54.71;98645.22;10331345;28;20503;-61
2022/03/11 17:54:05;;;;;;;40.20;25.25;;;;;;;-1.81;55.09;98636.63;10330911;28;20471;-61
2022/03/11 17:59:05;;;;;;;45.15;25.88;;;;;;;-1.89;56.21;98635.25;10331006;28;20482;-61
2022/03/11 18:04:04;;;;;;;37.33;22.65;;;;;;;-1.99;55.63;98607.50;10331492;28;20065;-61
2022/03/11 18:09:06;;;;;;;49.30;29.20;;;;;;;-2.45;56.17;98525.81;10330682;28;20514;-61
2022/03/11 18:14:05;;;;;;;44.58;26.70;;;;;;;-2.27;56.83;98558.34;10330686;28;20061;-61
2022/03/11 18:19:04;;;;;;;45.50;25.85;;;;;;;-1.83;57.26;98643.28;10329589;28;20103;-61
2022/03/11 18:24:06;;;;;;;34.90;22.10;;;;;;;-1.86;57.78;98645.63;10330317;28;20030;-61
2022/03/11 18:29:08;;;;;;;33.88;21.00;;;;;;;-1.87;58.35;98648.94;10327102;28;20068;-61
2022/03/11 18:34:06;;;;;;;37.70;22.17;;;;;;;-2.33;57.81;98580.00;10330911;28;20065;-61
2022/03/11 18:39:07;;;;;;;39.47;24.35;;;;;;;-1.86;57.81;98655.81;10337418;28;20036;-61
2022/03/11 18:44:07;;;;;;;38.22;25.85;;;;;;;-1.87;57.85;98670.19;10336922;28;20513;-61
2022/03/11 18:49:07;;;;;;;44.55;25.88;;;;;;;-1.85;57.71;98666.06;10336187;28;20069;-61
2022/03/11 18:54:06;;;;;;;56.08;30.45;;;;;;;-1.86;58.13;98671.94;10336337;28;20092;-61
2022/03/11 18:59:07;;;;;;;63.80;37.20;;;;;;;-1.99;59.41;98676.16;10338029;28;20393;-61
2022/03/11 19:04:07;;;;;;;66.68;42.10;;;;;;;-2.14;60.16;98682.06;10337956;28;20143;-61
2022/03/11 19:09:07;;;;;;;45.17;29.80;;;;;;;-2.52;61.01;98641.47;10337088;28;20065;-61
2022/03/11 19:14:07;;;;;;;43.70;29.25;;;;;;;-2.26;60.59;98696.53;10337197;28;20061;-61
2022/03/11 19:19:07;;;;;;;41.60;29.63;;;;;;;-2.44;61.10;98696.22;10309543;28;20072;-61
2022/03/11 19:24:06;;;;;;;37.38;23.25;;;;;;;-2.34;60.96;98692.59;10295992;28;20069;-61
2022/03/11 19:29:05;;;;;;;33.78;23.75;;;;;;;-2.72;61.14;98637.63;10317294;28;20040;-61
2022/03/11 19:34:05;;;;;;;46.85;31.52;;;;;;;-2.39;61.22;98699.06;10336565;28;20060;-61
2022/03/11 19:39:06;;;;;;;47.35;29.70;;;;;;;-2.59;61.43;98674.88;10335106;28;20065;-60
2022/03/11 19:44:07;;;;;;;65.07;35.30;;;;;;;-2.54;61.07;98697.28;10335240;28;20068;-60
2022/03/11 19:49:06;;;;;;;124.38;57.10;;;;;;;-2.94;61.63;98633.69;10335021;28;20072;-60
2022/03/11 19:54:05;;;;;;;89.88;44.30;;;;;;;-2.66;61.78;98709.19;10333549;28;20603;-60
2022/03/11 19:59:07;;;;;;;;;;;;;;;-2.74;62.32;98702.69;10335764;28;20592;-60
2022/03/11 20:04:07;;;;;;;405.88;177.60;;;;;;;-2.82;63.51;98712.38;10335223;28;19959;-60
2022/03/11 20:09:08;;;;;;;175.95;80.72;;;;;;;-2.85;63.76;98707.09;10333539;28;20485;-60
2022/03/11 20:14:09;;;;;;;438.55;196.30;;;;;;;-3.03;64.39;98688.09;10334609;28;20073;-60
2022/03/11 20:19:10;;;;;;;134.13;67.57;;;;;;;-2.94;64.49;98717.50;10334420;28;20061;-61
2022/03/11 20:24:09;;;;;;;140.75;82.60;;;;;;;-2.99;64.33;98708.69;10334891;28;20554;-61
2022/03/11 20:29:08;;;;;;;;;;;;;;;-3.00;64.41;98714.53;10335622;28;20084;-61
2022/03/11 20:34:08;;;;;;;53.87;29.87;;;;;;;-3.60;65.24;98616.63;10334252;28;19975;-61
2022/03/11 20:39:07;;;;;;;85.65;43.47;;;;;;;-3.00;65.10;98712.00;10332184;28;20794;-60
2022/03/11 20:44:06;;;;;;;62.67;31.75;;;;;;;-2.95;65.19;98714.84;10333620;28;20942;-61
2022/03/11 20:49:05;;;;;;;83.80;46.72;;;;;;;-2.93;65.36;98701.47;10333632;28;20068;-61
2022/03/11 20:54:04;;;;;;;69.93;40.42;;;;;;;-2.95;65.32;98694.53;10332954;28;20507;-61
2022/03/11 20:59:03;;;;;;;67.45;39.30;;;;;;;-3.28;65.18;98632.25;10332985;28;20491;-61
2022/03/11 21:04:05;;;;;;;63.28;37.05;;;;;;;-2.84;65.46;98695.25;10333602;28;20037;-61
2022/03/11 21:09:04;;;;;;;87.18;47.13;;;;;;;-2.93;65.63;98692.97;10332654;28;20065;-61
2022/03/11 21:14:03;;;;;;;;;;;;;;;-2.87;65.51;98707.72;10333626;28;20473;-61
2022/03/11 21:19:02;;;;;;;47.08;27.10;;;;;;;-2.89;65.30;98694.09;10332608;28;20402;-61
2022/03/11 21:24:02;;;;;;;58.40;34.63;;;;;;;-2.88;65.60;98690.75;10331067;28;20065;-61
2022/03/11 21:29:02;;;;;;;52.35;32.22;;;;;;;-2.72;64.80;98708.78;10331627;28;20068;-61
2022/03/11 21:34:01;;;;;;;54.60;32.75;;;;;;;-3.70;65.98;98552.47;10304692;28;20494;-61
2022/03/11 21:39:01;;;;;;;47.55;24.90;;;;;;;-3.08;68.27;98728.41;10331712;28;20072;-61
2022/03/11 21:44:02;;;;;;;36.38;20.55;;;;;;;-3.35;70.08;98733.31;10332029;28;20076;-61
2022/03/11 21:49:02;;;;;;;72.47;39.78;;;;;;;-3.49;69.44;98703.59;10332519;28;20068;-61
2022/03/11 21:54:03;;;;;;;59.35;33.35;;;;;;;-3.24;69.76;98731.53;10331193;28;20065;-61
2022/03/11 21:59:02;;;;;;;134.68;68.00;;;;;;;-3.10;69.66;98729.94;10330874;28;20095;-61
2022/03/11 22:04:01;;;;;;;106.57;56.33;;;;;;;-3.33;70.13;98696.25;10328711;28;20076;-61
2022/03/11 22:09:00;;;;;;;116.93;61.35;;;;;;;-3.72;70.49;98597.13;10331175;28;20076;-61
2022/03/11 22:14:00;;;;;;;131.43;76.93;;;;;;;-3.14;71.47;98688.22;10330287;28;20025;-61
2022/03/11 22:18:59;;;;;;;65.63;38.00;;;;;;;-3.12;72.48;98696.81;10330510;28;20506;-61
2022/03/11 22:23:58;;;;;;;59.95;41.35;;;;;;;-3.26;72.99;98663.69;10331033;28;20582;-61
2022/03/11 22:28:58;;;;;;;72.15;39.83;;;;;;;-3.25;73.51;98670.50;10329715;28;20508;-61
2022/03/11 22:33:57;;;;;;;183.32;85.57;;;;;;;-3.03;74.75;98749.03;10327510;28;20061;-61
2022/03/11 22:38:57;;;;;;;81.32;48.30;;;;;;;-3.51;75.26;98684.84;10330542;28;20087;-61
2022/03/11 22:44:03;;;;;;;57.08;31.23;;;;;;;-3.80;76.56;98660.00;10330442;28;20072;-61
2022/03/11 22:49:01;;;;;;;61.88;30.63;;;;;;;-3.53;78.33;98747.28;10330100;28;20795;-61
2022/03/11 22:54:04;;;;;;;119.43;58.55;;;;;;;-3.65;78.69;98736.28;10330325;28;20768;-61